createdAt,value
2018-09-15T00:00:02.581Z,0.00
2018-09-15T00:01:02.585Z,0.00
2018-09-15T00:02:04.106Z,0.00
2018-09-15T00:03:02.610Z,0.00
2018-09-15T00:04:02.579Z,0.00
2018-09-15T00:05:02.573Z,0.00
2018-09-15T00:06:02.581Z,0.00
2018-09-15T00:07:02.575Z,0.00
2018-09-15T00:08:02.628Z,0.00
2018-09-15T00:09:02.570Z,0.00
2018-09-15T00:10:02.598Z,0.00
2018-09-15T00:11:02.567Z,0.00
2018-09-15T00:12:02.567Z,0.00
2018-09-15T00:13:02.561Z,0.00
2018-09-15T00:14:02.563Z,0.00
2018-09-15T00:15:02.561Z,0.00
2018-09-15T00:16:02.563Z,0.00
2018-09-15T00:17:02.559Z,0.00
2018-09-15T00:18:02.558Z,0.00
2018-09-15T00:19:02.563Z,0.00
2018-09-15T00:20:02.563Z,0.00
2018-09-15T00:21:02.558Z,0.00
2018-09-15T00:22:02.554Z,0.00
2018-09-15T00:23:02.654Z,0.00
2018-09-15T00:24:02.554Z,0.00
2018-09-15T00:25:02.555Z,0.00
2018-09-15T00:26:02.545Z,0.00
2018-09-15T00:27:02.542Z,0.00
2018-09-15T00:28:02.549Z,0.00
2018-09-15T00:29:02.545Z,0.00
2018-09-15T00:30:02.541Z,0.00
2018-09-15T00:31:02.538Z,0.00
2018-09-15T00:32:02.536Z,0.00
2018-09-15T00:33:02.538Z,0.00
2018-09-15T00:34:02.548Z,0.00
2018-09-15T00:35:02.533Z,0.00
2018-09-15T00:36:02.537Z,0.00
2018-09-15T00:37:02.525Z,0.00
2018-09-15T00:38:02.525Z,0.00
2018-09-15T00:39:02.546Z,0.00
2018-09-15T00:40:02.526Z,0.00
2018-09-15T00:41:02.520Z,0.00
2018-09-15T00:42:02.520Z,0.00
2018-09-15T00:43:02.520Z,0.00
2018-09-15T00:44:02.523Z,0.00
2018-09-15T00:45:02.513Z,0.00
2018-09-15T00:46:02.514Z,0.00
2018-09-15T00:47:02.516Z,0.00
2018-09-15T00:48:02.581Z,0.00
2018-09-15T00:49:02.510Z,0.00
2018-09-15T00:50:02.506Z,0.00
2018-09-15T00:51:02.508Z,0.00
2018-09-15T00:52:02.505Z,0.00
2018-09-15T00:53:02.507Z,0.00
2018-09-15T00:54:02.537Z,0.00
2018-09-15T00:55:02.509Z,0.00
2018-09-15T00:56:02.496Z,0.00
2018-09-15T00:57:02.497Z,0.00
2018-09-15T00:58:02.499Z,0.00
2018-09-15T00:59:02.492Z,0.00
2018-09-15T01:00:02.512Z,0.00
2018-09-15T01:01:02.493Z,0.00
2018-09-15T01:02:02.493Z,0.00
2018-09-15T01:03:02.493Z,0.00
2018-09-15T01:04:02.636Z,0.00
2018-09-15T01:05:02.625Z,0.00
2018-09-15T01:06:02.484Z,0.00
2018-09-15T01:07:02.485Z,0.00
2018-09-15T01:08:02.483Z,0.00
2018-09-15T01:09:02.479Z,0.00
2018-09-15T01:10:02.479Z,0.00
2018-09-15T01:11:02.480Z,0.00
2018-09-15T01:12:02.479Z,0.00
2018-09-15T01:13:02.475Z,0.00
2018-09-15T01:14:02.572Z,0.00
2018-09-15T01:15:02.474Z,0.00
2018-09-15T01:16:02.470Z,0.00
2018-09-15T01:17:02.468Z,0.00
2018-09-15T01:18:02.471Z,0.00
2018-09-15T01:19:02.467Z,0.00
2018-09-15T01:20:02.554Z,0.00
2018-09-15T01:21:02.468Z,0.00
2018-09-15T01:22:02.468Z,0.00
2018-09-15T01:23:02.463Z,0.00
2018-09-15T01:24:02.460Z,0.00
2018-09-15T01:25:02.473Z,0.00
2018-09-15T01:26:02.544Z,0.00
2018-09-15T01:27:02.459Z,0.00
2018-09-15T01:28:02.457Z,0.00
2018-09-15T01:29:02.493Z,0.00
2018-09-15T01:30:02.455Z,0.00
2018-09-15T01:31:02.451Z,0.00
2018-09-15T01:32:02.452Z,0.00
2018-09-15T01:33:02.452Z,0.00
2018-09-15T01:34:02.449Z,0.00
2018-09-15T01:35:02.449Z,0.00
2018-09-15T01:36:02.447Z,0.00
2018-09-15T01:37:02.446Z,0.00
2018-09-15T01:38:02.446Z,0.00
2018-09-15T01:39:02.442Z,0.00
2018-09-15T01:40:02.459Z,0.00
2018-09-15T01:41:02.439Z,0.00
2018-09-15T01:42:02.460Z,0.00
2018-09-15T01:43:02.439Z,0.00
2018-09-15T01:44:02.435Z,0.00
2018-09-15T01:45:02.471Z,0.00
2018-09-15T01:46:02.436Z,0.00
2018-09-15T01:47:02.454Z,0.00
2018-09-15T01:48:02.433Z,0.00
2018-09-15T01:49:02.428Z,0.00
2018-09-15T01:50:02.442Z,0.00
2018-09-15T01:51:02.425Z,0.00
2018-09-15T01:52:02.427Z,0.00
2018-09-15T01:54:11.107Z,0.00
2018-09-15T01:55:00.201Z,0.00
2018-09-15T01:56:00.124Z,0.00
2018-09-15T01:57:52.967Z,0.00
2018-09-15T01:58:52.993Z,0.00
2018-09-15T02:00:45.821Z,0.00
2018-09-15T02:01:45.414Z,0.00
2018-09-15T02:03:38.745Z,0.00
2018-09-15T02:04:39.189Z,0.00
2018-09-15T02:06:31.431Z,0.00
2018-09-15T02:07:31.474Z,0.00
2018-09-15T02:09:24.516Z,0.00
2018-09-15T02:10:24.422Z,0.00
2018-09-15T02:12:17.464Z,0.00
2018-09-15T02:13:17.298Z,0.00
2018-09-15T02:15:10.781Z,0.00
2018-09-15T02:16:10.789Z,0.00
2018-09-15T02:18:04.266Z,0.00
2018-09-15T02:19:04.188Z,0.00
2018-09-15T02:20:57.630Z,0.00
2018-09-15T02:21:57.555Z,0.00
2018-09-15T02:23:50.921Z,0.00
2018-09-15T02:24:50.920Z,0.00
2018-09-15T02:26:44.404Z,0.00
2018-09-15T02:27:44.293Z,0.00
2018-09-15T02:29:37.797Z,0.00
2018-09-15T02:30:37.869Z,0.00
2018-09-15T02:32:30.749Z,0.00
2018-09-15T02:33:30.622Z,0.00
2018-09-15T02:34:30.555Z,0.00
2018-09-15T02:35:30.497Z,0.00
2018-09-15T02:36:30.352Z,0.00
2018-09-15T02:37:30.545Z,0.00
2018-09-15T02:38:30.271Z,0.00
2018-09-15T02:39:30.233Z,0.00
2018-09-15T02:40:30.224Z,0.00
2018-09-15T02:41:30.218Z,0.00
2018-09-15T02:42:30.222Z,0.00
2018-09-15T02:43:30.217Z,0.00
2018-09-15T02:44:30.239Z,0.00
2018-09-15T02:45:30.219Z,0.00
2018-09-15T02:46:30.213Z,0.00
2018-09-15T02:47:30.215Z,0.00
2018-09-15T02:48:30.229Z,0.00
2018-09-15T02:49:30.235Z,0.00
2018-09-15T02:50:30.203Z,0.00
2018-09-15T02:51:30.210Z,0.00
2018-09-15T02:52:30.207Z,0.00
2018-09-15T02:53:30.200Z,0.00
2018-09-15T02:54:30.211Z,0.00
2018-09-15T02:55:30.199Z,0.00
2018-09-15T02:56:30.200Z,0.00
2018-09-15T02:57:30.198Z,0.00
2018-09-15T02:58:30.199Z,0.00
2018-09-15T02:59:30.195Z,0.00
2018-09-15T03:00:30.230Z,0.00
2018-09-15T03:01:30.195Z,0.00
2018-09-15T03:02:30.190Z,0.00
2018-09-15T03:03:30.187Z,0.00
2018-09-15T03:04:30.190Z,0.00
2018-09-15T03:05:30.185Z,0.00
2018-09-15T03:06:30.181Z,0.00
2018-09-15T03:07:30.182Z,0.00
2018-09-15T03:08:30.183Z,0.00
2018-09-15T03:09:30.180Z,0.00
2018-09-15T03:10:30.190Z,0.00
2018-09-15T03:11:30.177Z,0.00
2018-09-15T03:12:30.172Z,0.00
2018-09-15T03:13:30.175Z,0.00
2018-09-15T03:14:30.198Z,0.00
2018-09-15T03:15:31.856Z,0.00
2018-09-15T03:16:30.171Z,0.00
2018-09-15T03:17:30.167Z,0.00
2018-09-15T03:18:30.169Z,0.00
2018-09-15T03:19:30.165Z,0.00
2018-09-15T03:20:30.164Z,0.00
2018-09-15T03:21:30.171Z,0.00
2018-09-15T03:22:30.161Z,0.00
2018-09-15T03:23:30.160Z,0.00
2018-09-15T03:24:30.155Z,0.00
2018-09-15T03:25:30.153Z,0.00
2018-09-15T03:26:30.157Z,0.00
2018-09-15T03:27:30.149Z,0.00
2018-09-15T03:28:30.156Z,0.00
2018-09-15T03:29:30.143Z,0.00
2018-09-15T03:30:30.146Z,0.00
2018-09-15T03:31:30.143Z,0.00
2018-09-15T03:32:30.144Z,0.00
2018-09-15T03:33:30.151Z,0.00
2018-09-15T03:34:30.185Z,0.00
2018-09-15T03:35:30.172Z,0.00
2018-09-15T03:36:30.142Z,0.00
2018-09-15T03:37:30.181Z,0.00
2018-09-15T03:38:30.133Z,0.00
2018-09-15T03:39:30.167Z,0.00
2018-09-15T03:40:30.167Z,0.00
2018-09-15T03:41:30.166Z,0.00
2018-09-15T03:42:30.130Z,0.00
2018-09-15T03:43:30.121Z,0.00
2018-09-15T03:44:30.125Z,0.00
2018-09-15T03:45:30.117Z,0.00
2018-09-15T03:46:30.126Z,0.00
2018-09-15T03:47:30.113Z,0.00
2018-09-15T03:48:30.112Z,0.00
2018-09-15T03:49:30.110Z,0.00
2018-09-15T03:50:30.112Z,0.00
2018-09-15T03:51:30.107Z,0.00
2018-09-15T03:52:30.106Z,0.00
2018-09-15T03:53:30.112Z,0.00
2018-09-15T03:54:30.105Z,0.00
2018-09-15T03:55:30.107Z,0.00
2018-09-15T03:56:30.100Z,0.00
2018-09-15T03:57:30.127Z,0.00
2018-09-15T03:58:30.095Z,0.00
2018-09-15T03:59:30.100Z,0.00
2018-09-15T04:00:30.090Z,0.00
2018-09-15T04:01:30.089Z,0.00
2018-09-15T04:02:30.089Z,0.00
2018-09-15T04:03:30.087Z,0.00
2018-09-15T04:04:30.095Z,0.00
2018-09-15T04:05:30.078Z,0.00
2018-09-15T04:06:30.078Z,0.00
2018-09-15T04:07:30.079Z,0.00
2018-09-15T04:08:30.073Z,0.00
2018-09-15T04:09:30.077Z,0.00
2018-09-15T04:10:30.067Z,0.00
2018-09-15T04:11:30.069Z,0.00
2018-09-15T04:12:30.064Z,0.00
2018-09-15T04:13:30.064Z,0.00
2018-09-15T04:14:30.060Z,0.00
2018-09-15T04:15:30.063Z,0.00
2018-09-15T04:16:30.057Z,0.00
2018-09-15T04:17:30.057Z,0.00
2018-09-15T04:18:30.058Z,0.00
2018-09-15T04:19:30.074Z,0.00
2018-09-15T04:20:30.053Z,0.00
2018-09-15T04:21:30.049Z,0.00
2018-09-15T04:22:30.047Z,0.00
2018-09-15T04:23:30.045Z,0.00
2018-09-15T04:24:30.045Z,0.00
2018-09-15T04:25:30.039Z,0.00
2018-09-15T04:26:30.041Z,0.00
2018-09-15T04:27:30.035Z,4.00
2018-09-15T04:28:30.128Z,4.00
2018-09-15T04:29:30.049Z,0.00
2018-09-15T04:30:30.029Z,4.00
2018-09-15T04:31:30.029Z,4.00
2018-09-15T04:32:30.025Z,4.00
2018-09-15T04:33:30.023Z,4.00
2018-09-15T04:34:30.018Z,8.00
2018-09-15T04:35:30.027Z,4.00
2018-09-15T04:36:30.013Z,4.00
2018-09-15T04:37:30.012Z,12.00
2018-09-15T04:38:30.010Z,12.00
2018-09-15T04:39:30.008Z,12.00
2018-09-15T04:40:30.011Z,12.00
2018-09-15T04:41:30.002Z,20.00
2018-09-15T04:42:30.003Z,20.00
2018-09-15T04:43:29.996Z,24.00
2018-09-15T04:44:29.996Z,24.00
2018-09-15T04:45:29.995Z,28.00
2018-09-15T04:46:29.996Z,32.00
2018-09-15T04:47:29.989Z,36.00
2018-09-15T04:48:29.986Z,40.00
2018-09-15T04:49:29.998Z,44.00
2018-09-15T04:50:29.978Z,48.00
2018-09-15T04:51:29.977Z,56.00
2018-09-15T04:52:29.992Z,60.00
2018-09-15T04:53:29.986Z,68.00
2018-09-15T04:54:29.969Z,76.00
2018-09-15T04:55:29.972Z,80.00
2018-09-15T04:56:29.976Z,88.00
2018-09-15T04:57:29.963Z,96.00
2018-09-15T04:58:29.962Z,108.00
2018-09-15T04:59:29.961Z,112.00
2018-09-15T05:00:29.956Z,120.00
2018-09-15T05:01:29.955Z,132.00
2018-09-15T05:02:29.987Z,144.00
2018-09-15T05:03:29.948Z,152.00
2018-09-15T05:04:29.947Z,164.00
2018-09-15T05:05:29.944Z,172.00
2018-09-15T05:06:29.961Z,188.00
2018-09-15T05:07:29.942Z,200.00
2018-09-15T05:08:29.941Z,208.00
2018-09-15T05:09:29.937Z,224.00
2018-09-15T05:10:29.970Z,236.00
2018-09-15T05:11:29.950Z,252.00
2018-09-15T05:12:29.965Z,268.00
2018-09-15T05:13:29.936Z,280.00
2018-09-15T05:14:29.926Z,292.00
2018-09-15T05:15:29.925Z,312.00
2018-09-15T05:16:29.920Z,328.00
2018-09-15T05:17:29.920Z,348.00
2018-09-15T05:18:29.960Z,364.00
2018-09-15T05:19:29.915Z,384.00
2018-09-15T05:20:29.915Z,404.00
2018-09-15T05:22:23.159Z,436.00
2018-09-15T05:23:23.306Z,456.00
2018-09-15T05:25:16.670Z,496.00
2018-09-15T05:26:16.641Z,512.00
2018-09-15T05:28:10.132Z,548.00
2018-09-15T05:29:10.581Z,564.00
2018-09-15T05:31:03.429Z,600.00
2018-09-15T05:32:03.540Z,620.00
2018-09-15T05:33:56.879Z,656.00
2018-09-15T05:34:56.771Z,672.00
2018-09-15T05:36:50.350Z,716.00
2018-09-15T05:37:50.231Z,732.00
2018-09-15T05:39:43.737Z,764.00
2018-09-15T05:40:43.579Z,780.00
2018-09-15T05:42:36.562Z,812.00
2018-09-15T05:43:36.910Z,828.00
2018-09-15T05:45:30.060Z,856.00
2018-09-15T05:46:30.075Z,868.00
2018-09-15T05:48:22.761Z,892.00
2018-09-15T05:49:22.957Z,904.00
2018-09-15T05:51:16.340Z,924.00
2018-09-15T05:52:16.329Z,932.00
2018-09-15T05:54:09.782Z,948.00
2018-09-15T05:55:09.524Z,952.00
2018-09-15T05:57:03.180Z,964.00
2018-09-15T05:58:05.162Z,964.00
2018-09-15T05:59:56.622Z,988.00
2018-09-15T06:00:56.525Z,1000.00
2018-09-15T06:02:49.935Z,1008.00
2018-09-15T06:03:49.286Z,1008.00
2018-09-15T06:05:43.374Z,1004.00
2018-09-15T06:06:42.741Z,1000.00
2018-09-15T06:08:35.561Z,1000.00
2018-09-15T06:09:35.537Z,1024.00
2018-09-15T06:11:29.023Z,1056.00
2018-09-15T06:12:29.159Z,1064.00
2018-09-15T06:14:21.931Z,1064.00
2018-09-15T06:15:21.832Z,1064.00
2018-09-15T06:17:15.691Z,1100.00
2018-09-15T06:18:15.618Z,1116.00
2018-09-15T06:20:08.557Z,1160.00
2018-09-15T06:21:08.529Z,1180.00
2018-09-15T06:23:02.473Z,1212.00
2018-09-15T06:24:01.355Z,1240.00
2018-09-15T06:25:55.889Z,1272.00
2018-09-15T06:26:55.342Z,1300.00
2018-09-15T06:28:47.706Z,1320.00
2018-09-15T06:29:48.164Z,1336.00
2018-09-15T06:31:40.540Z,1352.00
2018-09-15T06:32:40.512Z,1364.00
2018-09-15T06:34:33.911Z,1376.00
2018-09-15T06:35:33.390Z,1384.00
2018-09-15T06:37:26.348Z,1416.00
2018-09-15T06:38:26.209Z,1444.00
2018-09-15T06:40:21.679Z,3356.00
2018-09-15T06:41:19.173Z,4928.00
2018-09-15T06:42:19.122Z,4988.00
2018-09-15T06:43:19.104Z,5124.00
2018-09-15T06:44:19.093Z,5220.00
2018-09-15T06:45:18.799Z,5276.00
2018-09-15T06:46:18.749Z,5412.00
2018-09-15T06:47:19.179Z,5556.00
2018-09-15T06:48:18.702Z,5712.00
2018-09-15T06:49:18.709Z,5844.00
2018-09-15T06:50:18.679Z,5920.00
2018-09-15T06:51:18.741Z,5912.00
2018-09-15T06:52:18.710Z,5952.00
2018-09-15T06:53:18.684Z,6088.00
2018-09-15T06:54:18.699Z,6184.00
2018-09-15T06:55:18.692Z,6224.00
2018-09-15T06:56:18.724Z,6416.00
2018-09-15T06:57:18.699Z,6404.00
2018-09-15T06:58:18.704Z,6448.00
2018-09-15T06:59:19.002Z,6588.00
2018-09-15T07:00:18.716Z,6588.00
2018-09-15T07:01:18.717Z,6196.00
2018-09-15T07:02:18.719Z,6784.00
2018-09-15T07:03:18.745Z,6884.00
2018-09-15T07:04:18.727Z,7120.00
2018-09-15T07:05:18.733Z,7228.00
2018-09-15T07:06:18.742Z,7052.00
2018-09-15T07:07:18.747Z,6580.00
2018-09-15T07:08:27.502Z,6800.00
2018-09-15T07:10:13.215Z,7280.00
2018-09-15T07:11:13.115Z,6800.00
2018-09-15T07:13:05.682Z,7188.00
2018-09-15T07:14:06.084Z,6720.00
2018-09-15T07:16:00.054Z,6336.00
2018-09-15T07:17:00.587Z,5488.00
2018-09-15T07:18:51.953Z,7216.00
2018-09-15T07:19:51.925Z,7852.00
2018-09-15T07:21:46.287Z,8000.00
2018-09-15T07:22:46.316Z,8500.00
2018-09-15T07:24:40.220Z,8640.00
2018-09-15T07:25:39.134Z,7516.00
2018-09-15T07:27:33.131Z,7900.00
2018-09-15T07:28:32.136Z,6848.00
2018-09-15T07:30:25.113Z,5824.00
2018-09-15T07:31:25.161Z,8136.00
2018-09-15T07:33:18.884Z,8544.00
2018-09-15T07:34:20.003Z,8680.00
2018-09-15T07:36:12.345Z,11180.00
2018-09-15T07:37:11.404Z,11956.00
2018-09-15T07:39:06.008Z,9948.00
2018-09-15T07:40:05.681Z,9984.00
2018-09-15T07:41:58.753Z,11256.00
2018-09-15T07:42:58.685Z,12540.00
2018-09-15T07:44:51.214Z,12892.00
2018-09-15T07:45:51.530Z,13964.00
2018-09-15T07:47:44.070Z,18912.00
2018-09-15T07:48:44.990Z,18688.00
2018-09-15T07:50:38.942Z,19168.00
2018-09-15T07:51:38.445Z,20928.00
2018-09-15T07:52:37.876Z,22016.00
2018-09-15T07:53:37.342Z,22304.00
2018-09-15T07:54:37.378Z,20000.00
2018-09-15T07:55:37.543Z,18592.00
2018-09-15T07:56:37.955Z,18368.00
2018-09-15T07:57:38.448Z,16608.00
2018-09-15T07:58:38.876Z,15904.00
2018-09-15T07:59:37.269Z,16288.00
2018-09-15T08:00:36.970Z,17536.00
2018-09-15T08:01:37.006Z,17632.00
2018-09-15T08:02:37.083Z,18176.00
2018-09-15T08:03:36.995Z,17344.00
2018-09-15T08:04:37.003Z,17024.00
2018-09-15T08:05:37.068Z,17280.00
2018-09-15T08:06:37.021Z,18400.00
2018-09-15T08:07:37.542Z,20096.00
2018-09-15T08:08:37.160Z,18112.00
2018-09-15T08:09:37.083Z,15648.00
2018-09-15T08:10:37.057Z,16992.00
2018-09-15T08:11:37.105Z,18848.00
2018-09-15T08:12:37.120Z,18304.00
2018-09-15T08:13:37.085Z,17728.00
2018-09-15T08:14:37.099Z,18912.00
2018-09-15T08:15:37.177Z,18912.00
2018-09-15T08:16:37.117Z,17152.00
2018-09-15T08:17:37.163Z,17344.00
2018-09-15T08:18:37.188Z,18400.00
2018-09-15T08:19:37.143Z,18368.00
2018-09-15T08:20:37.234Z,19040.00
2018-09-15T08:23:22.280Z,17888.00
2018-09-15T08:24:20.866Z,18784.00
2018-09-15T08:26:14.916Z,17760.00
2018-09-15T08:27:14.803Z,18976.00
2018-09-15T08:28:14.884Z,19456.00
2018-09-15T08:29:15.881Z,18656.00
2018-09-15T08:31:44.008Z,20704.00
2018-09-15T08:32:43.316Z,20704.00
2018-09-15T08:34:36.226Z,21952.00
2018-09-15T08:35:36.766Z,22688.00
2018-09-15T08:37:30.194Z,26752.00
2018-09-15T08:38:30.284Z,26880.00
2018-09-15T08:40:29.217Z,25536.00
2018-09-15T08:41:29.627Z,26240.00
2018-09-15T08:42:29.097Z,27392.00
2018-09-15T08:43:30.095Z,29792.00
2018-09-15T08:44:29.078Z,31168.00
2018-09-15T08:45:29.013Z,31168.00
2018-09-15T08:46:29.072Z,28544.00
2018-09-15T08:47:29.566Z,26304.00
2018-09-15T08:48:28.465Z,23616.00
2018-09-15T08:49:28.468Z,21952.00
2018-09-15T08:50:28.352Z,20896.00
2018-09-15T08:51:28.198Z,20320.00
2018-09-15T08:52:28.212Z,19936.00
2018-09-15T08:53:28.196Z,2724.00
2018-09-15T08:54:28.266Z,19392.00
2018-09-15T08:55:28.277Z,19616.00
2018-09-15T08:56:28.235Z,19712.00
2018-09-15T08:57:28.349Z,19776.00
2018-09-15T08:58:28.311Z,9236.00
2018-09-15T08:59:28.370Z,4112.00
2018-09-15T09:00:28.316Z,19712.00
2018-09-15T09:01:28.334Z,20160.00
2018-09-15T09:02:28.330Z,20064.00
2018-09-15T09:03:28.299Z,19904.00
2018-09-15T09:04:28.385Z,20416.00
2018-09-15T09:05:28.374Z,5448.00
2018-09-15T09:06:28.378Z,3104.00
2018-09-15T09:07:28.384Z,2976.00
2018-09-15T09:08:28.404Z,2864.00
2018-09-15T09:09:28.437Z,5508.00
2018-09-15T09:10:28.428Z,18656.00
2018-09-15T09:11:28.403Z,18752.00
2018-09-15T09:12:28.414Z,3212.00
2018-09-15T09:13:28.481Z,2620.00
2018-09-15T09:14:28.465Z,2800.00
2018-09-15T09:15:28.513Z,3160.00
2018-09-15T09:16:28.514Z,4416.00
2018-09-15T09:17:28.582Z,11560.00
2018-09-15T09:18:28.499Z,4044.00
2018-09-15T09:19:28.486Z,3424.00
2018-09-15T09:20:28.553Z,3336.00
2018-09-15T09:21:28.508Z,3388.00
2018-09-15T09:22:28.594Z,3208.00
2018-09-15T09:23:28.529Z,3152.00
2018-09-15T09:24:28.571Z,3164.00
2018-09-15T09:25:28.661Z,3420.00
2018-09-15T09:26:28.659Z,3612.00
2018-09-15T09:27:28.586Z,3548.00
2018-09-15T09:28:28.558Z,3132.00
2018-09-15T09:29:28.642Z,3512.00
2018-09-15T09:30:28.580Z,3764.00
2018-09-15T09:31:28.588Z,4964.00
2018-09-15T09:32:28.663Z,4552.00
2018-09-15T09:33:28.626Z,4224.00
2018-09-15T09:34:28.630Z,4080.00
2018-09-15T09:35:28.635Z,3792.00
2018-09-15T09:36:28.640Z,3460.00
2018-09-15T09:37:28.621Z,3028.00
2018-09-15T09:38:28.630Z,3088.00
2018-09-15T09:39:28.653Z,3468.00
2018-09-15T09:40:28.642Z,4228.00
2018-09-15T09:41:28.822Z,46752.00
2018-09-15T09:42:28.648Z,45984.00
2018-09-15T09:43:28.676Z,6672.00
2018-09-15T09:44:28.663Z,4852.00
2018-09-15T09:45:28.664Z,4184.00
2018-09-15T09:46:28.735Z,3932.00
2018-09-15T09:47:28.707Z,3912.00
2018-09-15T09:48:28.745Z,3912.00
2018-09-15T09:49:28.749Z,3864.00
2018-09-15T09:50:28.767Z,11872.00
2018-09-15T09:51:28.749Z,4300.00
2018-09-15T09:52:28.744Z,4636.00
2018-09-15T09:53:28.718Z,4100.00
2018-09-15T09:54:28.769Z,3804.00
2018-09-15T09:55:28.760Z,18880.00
2018-09-15T09:56:28.736Z,7068.00
2018-09-15T09:57:28.752Z,5140.00
2018-09-15T09:58:28.740Z,6308.00
2018-09-15T09:59:28.805Z,5512.00
2018-09-15T10:00:28.787Z,4376.00
2018-09-15T10:01:28.797Z,4124.00
2018-09-15T10:02:28.761Z,4168.00
2018-09-15T10:06:08.845Z,4224.00
2018-09-15T10:07:06.780Z,4424.00
2018-09-15T10:10:09.880Z,7084.00
2018-09-15T10:11:01.144Z,5200.00
2018-09-15T10:12:53.924Z,4668.00
2018-09-15T10:13:55.011Z,4356.00
2018-09-15T10:15:47.438Z,4544.00
2018-09-15T10:16:46.837Z,5752.00
2018-09-15T10:18:40.738Z,4016.00
2018-09-15T10:19:39.779Z,3560.00
2018-09-15T10:21:32.689Z,2932.00
2018-09-15T10:22:32.617Z,3364.00
2018-09-15T10:24:26.083Z,4132.00
2018-09-15T10:25:25.458Z,3704.00
2018-09-15T10:27:18.362Z,4008.00
2018-09-15T10:28:18.345Z,5544.00
2018-09-15T10:30:11.816Z,4200.00
2018-09-15T10:31:11.836Z,4944.00
2018-09-15T10:33:05.673Z,3688.00
2018-09-15T10:34:05.271Z,3556.00
2018-09-15T10:35:58.213Z,5588.00
2018-09-15T10:36:57.643Z,5696.00
2018-09-15T10:38:51.491Z,5292.00
2018-09-15T10:39:50.566Z,5232.00
2018-09-15T10:41:43.570Z,5112.00
2018-09-15T10:42:43.485Z,5116.00
2018-09-15T10:44:37.477Z,5048.00
2018-09-15T10:45:36.184Z,4912.00
2018-09-15T10:47:29.299Z,4840.00
2018-09-15T10:48:29.138Z,3392.00
2018-09-15T10:50:22.207Z,4436.00
2018-09-15T10:51:22.650Z,4584.00
2018-09-15T10:53:15.044Z,4856.00
2018-09-15T10:54:14.896Z,4980.00
2018-09-15T10:56:07.956Z,4780.00
2018-09-15T10:57:07.909Z,4588.00
2018-09-15T10:59:00.846Z,4480.00
2018-09-15T11:00:01.366Z,4436.00
2018-09-15T11:01:54.992Z,4432.00
2018-09-15T11:02:54.409Z,4348.00
2018-09-15T11:04:47.297Z,4288.00
2018-09-15T11:05:47.938Z,4376.00
2018-09-15T11:07:41.205Z,4768.00
2018-09-15T11:08:40.272Z,4860.00
2018-09-15T11:10:33.152Z,3340.00
2018-09-15T11:11:33.150Z,3408.00
2018-09-15T11:13:27.093Z,4752.00
2018-09-15T11:14:26.534Z,4792.00
2018-09-15T11:16:19.353Z,4848.00
2018-09-15T11:17:18.915Z,4524.00
2018-09-15T11:19:12.688Z,4180.00
2018-09-15T11:20:11.980Z,4140.00
2018-09-15T11:22:06.417Z,3984.00
2018-09-15T11:23:06.366Z,3156.00
2018-09-15T11:24:58.708Z,4064.00
2018-09-15T11:25:58.774Z,3868.00
2018-09-15T11:27:51.607Z,2804.00
2018-09-15T11:28:52.662Z,2844.00
2018-09-15T11:30:45.511Z,3676.00
2018-09-15T11:31:45.071Z,3668.00
2018-09-15T11:33:38.495Z,3116.00
2018-09-15T11:34:39.040Z,2276.00
2018-09-15T11:36:30.543Z,2344.00
2018-09-15T11:37:30.837Z,3452.00
2018-09-15T11:39:23.676Z,3640.00
2018-09-15T11:40:24.142Z,3724.00
2018-09-15T11:42:17.037Z,3672.00
2018-09-15T11:43:16.086Z,3668.00
2018-09-15T11:45:10.031Z,3804.00
2018-09-15T11:46:09.333Z,3892.00
2018-09-15T11:48:03.032Z,3952.00
2018-09-15T11:49:02.980Z,3936.00
2018-09-15T11:50:56.283Z,3736.00
2018-09-15T11:51:55.207Z,3664.00
2018-09-15T11:53:48.986Z,3676.00
2018-09-15T11:54:49.206Z,3588.00
2018-09-15T11:56:41.842Z,3564.00
2018-09-15T11:57:42.310Z,3552.00
2018-09-15T11:59:35.696Z,3552.00
2018-09-15T12:00:35.926Z,3496.00
2018-09-15T12:02:29.238Z,3504.00
2018-09-15T12:03:28.546Z,3636.00
2018-09-15T12:05:20.567Z,3708.00
2018-09-15T12:06:20.964Z,3696.00
2018-09-15T12:08:14.392Z,2800.00
2018-09-15T12:09:13.908Z,2664.00
2018-09-15T12:11:07.372Z,3520.00
2018-09-15T12:12:06.826Z,3336.00
2018-09-15T12:13:59.219Z,2504.00
2018-09-15T12:15:00.240Z,2452.00
2018-09-15T12:16:52.145Z,2400.00
2018-09-15T12:17:51.572Z,2324.00
2018-09-15T12:19:45.146Z,2536.00
2018-09-15T12:20:45.453Z,2648.00
2018-09-15T12:22:38.162Z,3000.00
2018-09-15T12:23:39.340Z,3668.00
2018-09-15T12:25:32.626Z,2632.00
2018-09-15T12:26:31.480Z,2560.00
2018-09-15T12:28:23.608Z,3208.00
2018-09-15T12:29:24.371Z,2308.00
2018-09-15T12:31:16.770Z,2488.00
2018-09-15T12:32:16.305Z,2900.00
2018-09-15T12:34:10.171Z,3108.00
2018-09-15T12:35:09.063Z,3160.00
2018-09-15T12:37:02.619Z,3248.00
2018-09-15T12:38:02.644Z,3216.00
2018-09-15T12:39:56.961Z,3152.00
2018-09-15T12:40:56.351Z,3172.00
2018-09-15T12:42:50.841Z,3232.00
2018-09-15T12:43:49.376Z,3092.00
2018-09-15T12:45:43.570Z,2732.00
2018-09-15T12:46:43.790Z,2732.00
2018-09-15T12:47:43.297Z,2180.00
2018-09-15T12:48:43.802Z,2040.00
2018-09-15T12:49:45.831Z,2124.00
2018-09-15T12:50:43.288Z,2740.00
2018-09-15T12:51:43.843Z,2332.00
2018-09-15T12:52:42.541Z,2776.00
2018-09-15T12:53:43.087Z,2628.00
2018-09-15T12:54:43.074Z,2516.00
2018-09-15T12:55:43.549Z,2480.00
2018-09-15T12:56:42.073Z,2500.00
2018-09-15T12:57:43.061Z,2836.00
2018-09-15T12:58:43.608Z,3156.00
2018-09-15T12:59:43.043Z,3176.00
2018-09-15T13:00:50.775Z,3104.00
2018-09-15T13:02:39.003Z,2508.00
2018-09-15T13:05:16.657Z,2556.00
2018-09-15T13:06:17.832Z,2520.00
2018-09-15T13:07:16.812Z,2424.00
2018-09-15T13:08:17.013Z,2400.00
2018-09-15T13:09:18.465Z,2340.00
2018-09-15T13:10:16.498Z,2312.00
2018-09-15T13:11:16.391Z,2312.00
2018-09-15T13:12:16.455Z,2292.00
2018-09-15T13:13:16.432Z,2640.00
2018-09-15T13:14:16.436Z,2648.00
2018-09-15T13:15:16.469Z,2276.00
2018-09-15T13:16:18.400Z,2308.00
2018-09-15T13:17:16.419Z,2356.00
2018-09-15T13:18:18.400Z,2408.00
2018-09-15T13:19:18.515Z,2412.00
2018-09-15T13:20:16.440Z,2336.00
2018-09-15T13:21:16.454Z,2312.00
2018-09-15T13:22:18.444Z,2280.00
2018-09-15T13:23:16.469Z,2212.00
2018-09-15T13:24:16.451Z,2140.00
2018-09-15T13:25:16.458Z,2132.00
2018-09-15T13:26:16.460Z,2444.00
2018-09-15T13:27:16.553Z,2228.00
2018-09-15T13:28:18.403Z,2616.00
2018-09-15T13:29:16.507Z,2304.00
2018-09-15T13:30:16.549Z,2700.00
2018-09-15T13:31:16.518Z,2168.00
2018-09-15T13:32:16.504Z,2104.00
2018-09-15T13:33:16.501Z,2072.00
2018-09-15T13:34:16.527Z,2060.00
2018-09-15T13:35:16.511Z,2040.00
2018-09-15T13:36:16.507Z,2060.00
2018-09-15T13:37:16.573Z,2196.00
2018-09-15T13:38:16.541Z,1980.00
2018-09-15T13:39:18.412Z,1948.00
2018-09-15T13:40:19.416Z,1932.00
2018-09-15T13:41:16.663Z,1920.00
2018-09-15T13:42:16.668Z,1836.00
2018-09-15T13:45:55.523Z,1836.00
2018-09-15T13:47:05.331Z,1844.00
2018-09-15T13:49:00.050Z,1812.00
2018-09-15T13:50:00.396Z,1764.00
2018-09-15T13:52:31.542Z,1672.00
2018-09-15T13:52:52.458Z,1616.00
2018-09-15T13:54:45.858Z,1564.00
2018-09-15T13:55:45.883Z,1560.00
2018-09-15T13:57:39.231Z,1508.00
2018-09-15T14:16:32.348Z,1344.00
2018-09-15T14:19:29.218Z,1516.00
2018-09-15T14:20:11.171Z,1416.00
2018-09-15T14:22:06.424Z,1568.00
2018-09-15T14:23:12.964Z,1328.00
2018-09-15T14:24:58.996Z,1312.00
2018-09-15T14:25:58.619Z,1332.00
2018-09-15T14:26:59.677Z,1352.00
2018-09-15T14:27:58.598Z,1380.00
2018-09-15T14:28:59.233Z,1384.00
2018-09-15T14:29:59.487Z,1388.00
2018-09-15T14:30:59.437Z,1404.00
2018-09-15T14:31:57.682Z,1400.00
2018-09-15T14:32:58.832Z,1400.00
2018-09-15T14:33:57.745Z,1380.00
2018-09-15T14:34:57.686Z,1344.00
2018-09-15T14:35:57.641Z,1312.00
2018-09-15T14:36:57.676Z,1284.00
2018-09-15T14:37:57.682Z,1264.00
2018-09-15T14:38:57.655Z,1248.00
2018-09-15T14:39:57.841Z,1236.00
2018-09-15T14:40:57.706Z,1236.00
2018-09-15T14:43:39.048Z,1208.00
2018-09-15T14:44:40.569Z,1204.00
2018-09-15T14:46:33.948Z,1180.00
2018-09-15T14:50:43.439Z,1104.00
2018-09-15T14:51:40.918Z,1064.00
2018-09-15T14:52:40.370Z,1048.00
2018-09-15T14:53:40.238Z,1068.00
2018-09-15T14:54:42.066Z,1080.00
2018-09-15T14:56:09.468Z,1084.00